sensor_id;sensor_type;location;lat;lon;timestamp;pressure;altitude;pressure_sealevel;temperature;humidity
3178;BME280;38141;42.666;23.344;2024-01-11T00:00:09;95589.44;;;-4.63;100.00
3178;BME280;38141;42.666;23.344;2024-01-11T00:02:39;95594.22;;;-4.55;100.00
3178;BME280;38141;42.666;23.344;2024-01-11T00:05:09;95583.91;;;-4.56;100.00
3178;BME280;38141;42.666;23.344;2024-01-11T00:07:36;95587.34;;;-4.71;100.00
3178;BME280;38141;42.666;23.344;2024-01-11T00:10:03;95591.03;;;-4.77;100.00
3178;BME280;38141;42.666;23.344;2024-01-11T00:12:30;95587.09;;;-4.69;100.00
3178;BME280;38141;42.666;23.344;2024-01-11T00:14:58;95578.63;;;-4.66;100.00
3178;BME280;38141;42.666;23.344;2024-01-11T00:17:25;95588.13;;;-4.65;100.00
3178;BME280;38141;42.666;23.344;2024-01-11T00:19:52;95566.75;;;-4.69;100.00
3178;BME280;38141;42.666;23.344;2024-01-11T00:22:20;95574.69;;;-4.64;100.00
3178;BME280;38141;42.666;23.344;2024-01-11T00:24:47;95582.06;;;-4.61;100.00
3178;BME280;38141;42.666;23.344;2024-01-11T00:27:14;95575.47;;;-4.78;100.00
3178;BME280;38141;42.666;23.344;2024-01-11T00:29:41;95573.63;;;-4.83;100.00
3178;BME280;38141;42.666;23.344;2024-01-11T00:32:09;95579.16;;;-4.84;100.00
3178;BME280;38141;42.666;23.344;2024-01-11T00:34:36;95581.78;;;-4.84;100.00
3178;BME280;38141;42.666;23.344;2024-01-11T00:37:04;95581.78;;;-4.95;100.00
3178;BME280;38141;42.666;23.344;2024-01-11T00:39:32;95574.66;;;-4.94;100.00
3178;BME280;38141;42.666;23.344;2024-01-11T00:41:59;95564.66;;;-4.82;100.00
3178;BME280;38141;42.666;23.344;2024-01-11T00:44:27;95562.00;;;-4.92;100.00
3178;BME280;38141;42.666;23.344;2024-01-11T00:46:54;95570.97;;;-5.03;100.00
3178;BME280;38141;42.666;23.344;2024-01-11T00:49:21;95568.31;;;-5.03;100.00
3178;BME280;38141;42.666;23.344;2024-01-11T00:51:48;95569.66;;;-5.06;100.00
3178;BME280;38141;42.666;23.344;2024-01-11T00:54:15;95564.38;;;-5.11;100.00
3178;BME280;38141;42.666;23.344;2024-01-11T00:56:43;95564.91;;;-5.19;100.00
3178;BME280;38141;42.666;23.344;2024-01-11T00:59:11;95555.66;;;-5.21;100.00
3178;BME280;38141;42.666;23.344;2024-01-11T01:01:38;95553.81;;;-5.16;100.00
3178;BME280;38141;42.666;23.344;2024-01-11T01:04:05;95552.75;;;-5.20;100.00
3178;BME280;38141;42.666;23.344;2024-01-11T01:06:31;95543.53;;;-5.17;100.00
3178;BME280;38141;42.666;23.344;2024-01-11T01:08:58;95550.41;;;-5.06;100.00
3178;BME280;38141;42.666;23.344;2024-01-11T01:11:25;95553.56;;;-5.14;100.00
3178;BME280;38141;42.666;23.344;2024-01-11T01:13:54;95543.78;;;-5.24;100.00
3178;BME280;38141;42.666;23.344;2024-01-11T01:16:21;95549.56;;;-5.22;100.00
3178;BME280;38141;42.666;23.344;2024-01-11T01:18:48;95547.22;;;-5.23;100.00
3178;BME280;38141;42.666;23.344;2024-01-11T01:21:15;95547.72;;;-5.21;100.00
3178;BME280;38141;42.666;23.344;2024-01-11T01:23:42;95545.38;;;-5.28;100.00
3178;BME280;38141;42.666;23.344;2024-01-11T01:26:09;95554.31;;;-5.29;100.00
3178;BME280;38141;42.666;23.344;2024-01-11T01:28:36;95550.91;;;-5.19;100.00
3178;BME280;38141;42.666;23.344;2024-01-11T01:31:04;95549.34;;;-4.95;100.00
3178;BME280;38141;42.666;23.344;2024-01-11T01:33:31;95546.19;;;-4.92;100.00
3178;BME280;38141;42.666;23.344;2024-01-11T01:35:58;95531.91;;;-4.81;100.00
3178;BME280;38141;42.666;23.344;2024-01-11T01:38:25;95544.59;;;-4.93;100.00
3178;BME280;38141;42.666;23.344;2024-01-11T01:40:52;95530.09;;;-5.11;100.00
3178;BME280;38141;42.666;23.344;2024-01-11T01:43:19;95532.19;;;-5.08;100.00
3178;BME280;38141;42.666;23.344;2024-01-11T01:45:46;95534.31;;;-5.10;100.00
3178;BME280;38141;42.666;23.344;2024-01-11T01:48:15;95521.38;;;-5.11;100.00
3178;BME280;38141;42.666;23.344;2024-01-11T01:50:43;95531.91;;;-5.16;100.00
3178;BME280;38141;42.666;23.344;2024-01-11T01:53:16;95516.09;;;-5.26;100.00
3178;BME280;38141;42.666;23.344;2024-01-11T01:55:43;95517.69;;;-5.15;100.00
3178;BME280;38141;42.666;23.344;2024-01-11T01:58:10;95521.09;;;-5.35;100.00
3178;BME280;38141;42.666;23.344;2024-01-11T02:00:38;95510.81;;;-5.21;100.00
3178;BME280;38141;42.666;23.344;2024-01-11T02:03:06;95505.28;;;-5.25;100.00
3178;BME280;38141;42.666;23.344;2024-01-11T02:05:35;95510.03;;;-5.42;100.00
3178;BME280;38141;42.666;23.344;2024-01-11T02:08:04;95505.28;;;-5.45;100.00
3178;BME280;38141;42.666;23.344;2024-01-11T02:10:34;95503.69;;;-5.46;100.00
3178;BME280;38141;42.666;23.344;2024-01-11T02:13:02;95493.41;;;-5.48;100.00
3178;BME280;38141;42.666;23.344;2024-01-11T02:15:29;95507.66;;;-5.39;100.00
3178;BME280;38141;42.666;23.344;2024-01-11T02:17:57;95502.34;;;-5.54;100.00
3178;BME280;38141;42.666;23.344;2024-01-11T02:20:24;95510.81;;;-5.42;100.00
3178;BME280;38141;42.666;23.344;2024-01-11T02:22:54;95506.06;;;-5.50;100.00
3178;BME280;38141;42.666;23.344;2024-01-11T02:25:24;95506.84;;;-5.49;100.00
3178;BME280;38141;42.666;23.344;2024-01-11T02:27:51;95505.78;;;-5.48;100.00
3178;BME280;38141;42.666;23.344;2024-01-11T02:30:18;95497.88;;;-5.48;100.00
3178;BME280;38141;42.666;23.344;2024-01-11T02:32:46;95500.81;;;-5.34;100.00
3178;BME280;38141;42.666;23.344;2024-01-11T02:35:14;95506.06;;;-5.40;100.00
3178;BME280;38141;42.666;23.344;2024-01-11T02:37:42;95504.97;;;-5.54;100.00
3178;BME280;38141;42.666;23.344;2024-01-11T02:40:12;95497.09;;;-5.64;100.00
3178;BME280;38141;42.666;23.344;2024-01-11T02:42:41;95501.34;;;-5.38;100.00
3178;BME280;38141;42.666;23.344;2024-01-11T02:45:10;95498.44;;;-5.41;100.00
3178;BME280;38141;42.666;23.344;2024-01-11T02:47:38;95497.91;;;-5.13;100.00
3178;BME280;38141;42.666;23.344;2024-01-11T02:50:06;95499.72;;;-5.49;100.00
3178;BME280;38141;42.666;23.344;2024-01-11T02:52:33;95488.69;;;-5.46;100.00
3178;BME280;38141;42.666;23.344;2024-01-11T02:55:00;95484.44;;;-5.57;100.00
3178;BME280;38141;42.666;23.344;2024-01-11T02:57:27;95485.50;;;-5.68;100.00
3178;BME280;38141;42.666;23.344;2024-01-11T02:59:55;95488.38;;;-5.64;100.00
3178;BME280;38141;42.666;23.344;2024-01-11T03:02:22;95488.09;;;-5.63;100.00
3178;BME280;38141;42.666;23.344;2024-01-11T03:04:50;95488.09;;;-5.73;100.00
3178;BME280;38141;42.666;23.344;2024-01-11T03:07:16;95480.44;;;-5.85;100.00
3178;BME280;38141;42.666;23.344;2024-01-11T03:09:43;95482.81;;;-5.78;100.00
3178;BME280;38141;42.666;23.344;2024-01-11T03:12:10;95481.22;;;-5.84;100.00
3178;BME280;38141;42.666;23.344;2024-01-11T03:14:37;95483.06;;;-5.85;100.00
3178;BME280;38141;42.666;23.344;2024-01-11T03:17:06;95480.97;;;-5.93;100.00
3178;BME280;38141;42.666;23.344;2024-01-11T03:19:33;95488.06;;;-5.93;100.00
3178;BME280;38141;42.666;23.344;2024-01-11T03:22:00;95480.44;;;-5.79;100.00
3178;BME280;38141;42.666;23.344;2024-01-11T03:24:31;95481.78;;;-5.62;100.00
3178;BME280;38141;42.666;23.344;2024-01-11T03:26:58;95471.25;;;-5.77;100.00
3178;BME280;38141;42.666;23.344;2024-01-11T03:29:25;95481.28;;;-5.64;100.00
3178;BME280;38141;42.666;23.344;2024-01-11T03:31:52;95457.56;;;-5.59;100.00
3178;BME280;38141;42.666;23.344;2024-01-11T03:34:21;95480.22;;;-5.68;100.00
3178;BME280;38141;42.666;23.344;2024-01-11T03:36:48;95476.22;;;-5.80;100.00
3178;BME280;38141;42.666;23.344;2024-01-11T03:39:15;95473.06;;;-5.82;100.00
3178;BME280;38141;42.666;23.344;2024-01-11T03:41:43;95476.75;;;-5.94;100.00
3178;BME280;38141;42.666;23.344;2024-01-11T03:44:12;95471.75;;;-5.95;100.00
3178;BME280;38141;42.666;23.344;2024-01-11T03:46:39;95481.78;;;-5.87;100.00
3178;BME280;38141;42.666;23.344;2024-01-11T03:49:06;95466.47;;;-6.05;100.00
3178;BME280;38141;42.666;23.344;2024-01-11T03:51:34;95475.16;;;-5.90;100.00
3178;BME280;38141;42.666;23.344;2024-01-11T03:54:01;95474.91;;;-5.93;100.00
3178;BME280;38141;42.666;23.344;2024-01-11T03:56:28;95468.34;;;-5.96;100.00
3178;BME280;38141;42.666;23.344;2024-01-11T03:58:55;95469.63;;;-5.93;100.00
3178;BME280;38141;42.666;23.344;2024-01-11T04:01:22;95462.25;;;-6.01;100.00
3178;BME280;38141;42.666;23.344;2024-01-11T04:03:49;95460.91;;;-6.14;100.00
3178;BME280;38141;42.666;23.344;2024-01-11T04:06:21;95465.09;;;-6.18;100.00
3178;BME280;38141;42.666;23.344;2024-01-11T04:08:50;95457.75;;;-6.06;100.00
3178;BME280;38141;42.666;23.344;2024-01-11T04:11:18;95459.84;;;-6.13;100.00
3178;BME280;38141;42.666;23.344;2024-01-11T04:13:44;95454.31;;;-6.11;100.00
3178;BME280;38141;42.666;23.344;2024-01-11T04:16:11;95451.75;;;-5.96;100.00
3178;BME280;38141;42.666;23.344;2024-01-11T04:18:38;95451.16;;;-6.03;100.00
3178;BME280;38141;42.666;23.344;2024-01-11T04:21:05;95432.75;;;-6.03;100.00
3178;BME280;38141;42.666;23.344;2024-01-11T04:23:32;95447.28;;;-5.91;100.00
3178;BME280;38141;42.666;23.344;2024-01-11T04:26:01;95445.16;;;-5.94;100.00
3178;BME280;38141;42.666;23.344;2024-01-11T04:28:28;95448.28;;;-6.02;100.00
3178;BME280;38141;42.666;23.344;2024-01-11T04:30:55;95445.63;;;-6.07;100.00
3178;BME280;38141;42.666;23.344;2024-01-11T04:33:23;95438.81;;;-6.03;100.00
3178;BME280;38141;42.666;23.344;2024-01-11T04:35:50;95449.63;;;-6.04;100.00
3178;BME280;38141;42.666;23.344;2024-01-11T04:38:17;95448.03;;;-6.05;100.00
3178;BME280;38141;42.666;23.344;2024-01-11T04:40:44;95452.22;;;-6.09;100.00
3178;BME280;38141;42.666;23.344;2024-01-11T04:43:12;95453.53;;;-6.07;100.00
3178;BME280;38141;42.666;23.344;2024-01-11T04:45:40;95453.75;;;-6.23;100.00
3178;BME280;38141;42.666;23.344;2024-01-11T04:48:07;95430.31;;;-6.30;100.00
3178;BME280;38141;42.666;23.344;2024-01-11T04:50:34;95457.50;;;-6.09;100.00
3178;BME280;38141;42.666;23.344;2024-01-11T04:53:01;95455.13;;;-6.11;100.00
3178;BME280;38141;42.666;23.344;2024-01-11T04:55:28;95459.03;;;-6.23;100.00
3178;BME280;38141;42.666;23.344;2024-01-11T04:57:55;95450.06;;;-6.27;100.00
3178;BME280;38141;42.666;23.344;2024-01-11T05:00:24;95456.09;;;-6.32;100.00
3178;BME280;38141;42.666;23.344;2024-01-11T05:02:50;95447.91;;;-6.36;100.00
3178;BME280;38141;42.666;23.344;2024-01-11T05:05:17;95452.41;;;-6.31;100.00
3178;BME280;38141;42.666;23.344;2024-01-11T05:07:45;95451.63;;;-6.32;100.00
3178;BME280;38141;42.666;23.344;2024-01-11T05:10:12;95442.13;;;-6.38;100.00
3178;BME280;38141;42.666;23.344;2024-01-11T05:12:39;95443.19;;;-6.34;100.00
3178;BME280;38141;42.666;23.344;2024-01-11T05:15:06;95448.47;;;-6.28;100.00
3178;BME280;38141;42.666;23.344;2024-01-11T05:17:35;95449.28;;;-6.23;100.00
3178;BME280;38141;42.666;23.344;2024-01-11T05:20:02;95454.88;;;-5.99;100.00
3178;BME280;38141;42.666;23.344;2024-01-11T05:22:29;95429.75;;;-6.37;100.00
3178;BME280;38141;42.666;23.344;2024-01-11T05:24:56;95439.50;;;-6.33;100.00
3178;BME280;38141;42.666;23.344;2024-01-11T05:27:23;95443.75;;;-6.16;100.00
3178;BME280;38141;42.666;23.344;2024-01-11T05:29:50;95436.66;;;-6.16;100.00
3178;BME280;38141;42.666;23.344;2024-01-11T05:32:17;95434.81;;;-6.15;100.00
3178;BME280;38141;42.666;23.344;2024-01-11T05:34:46;95430.31;;;-6.25;100.00
3178;BME280;38141;42.666;23.344;2024-01-11T05:37:13;95427.41;;;-6.28;100.00
3178;BME280;38141;42.666;23.344;2024-01-11T05:39:39;95423.44;;;-6.41;100.00
3178;BME280;38141;42.666;23.344;2024-01-11T05:42:07;95428.94;;;-6.43;100.00
3178;BME280;38141;42.666;23.344;2024-01-11T05:44:34;95426.06;;;-6.41;100.00
3178;BME280;38141;42.666;23.344;2024-01-11T05:47:40;95419.16;;;-6.52;100.00
3178;BME280;38141;42.666;23.344;2024-01-11T05:50:08;95425.56;;;-6.33;100.00
3178;BME280;38141;42.666;23.344;2024-01-11T05:52:35;95423.47;;;-6.26;100.00
3178;BME280;38141;42.666;23.344;2024-01-11T05:55:03;95418.50;;;-6.22;100.00
3178;BME280;38141;42.666;23.344;2024-01-11T05:57:30;95409.50;;;-6.26;100.00
3178;BME280;38141;42.666;23.344;2024-01-11T05:59:57;95423.22;;;-6.24;100.00
3178;BME280;38141;42.666;23.344;2024-01-11T06:02:24;95404.50;;;-6.33;100.00
3178;BME280;38141;42.666;23.344;2024-01-11T06:04:52;95416.13;;;-6.19;100.00
3178;BME280;38141;42.666;23.344;2024-01-11T06:07:19;95412.22;;;-6.01;100.00
3178;BME280;38141;42.666;23.344;2024-01-11T06:09:46;95404.59;;;-5.98;100.00
3178;BME280;38141;42.666;23.344;2024-01-11T06:12:13;95406.72;;;-6.00;100.00
3178;BME280;38141;42.666;23.344;2024-01-11T06:14:40;95412.22;;;-6.01;100.00
3178;BME280;38141;42.666;23.344;2024-01-11T06:17:07;95405.63;;;-5.84;100.00
3178;BME280;38141;42.666;23.344;2024-01-11T06:19:36;95415.41;;;-5.39;100.00
3178;BME280;38141;42.666;23.344;2024-01-11T06:22:05;95387.47;;;-5.50;100.00
3178;BME280;38141;42.666;23.344;2024-01-11T06:24:32;95410.63;;;-4.96;100.00
3178;BME280;38141;42.666;23.344;2024-01-11T06:26:59;95410.31;;;-4.89;100.00
3178;BME280;38141;42.666;23.344;2024-01-11T06:29:27;95395.25;;;-4.69;100.00
3178;BME280;38141;42.666;23.344;2024-01-11T06:31:54;95404.66;;;-4.47;100.00
3178;BME280;38141;42.666;23.344;2024-01-11T06:34:21;95400.78;;;-4.11;100.00
3178;BME280;38141;42.666;23.344;2024-01-11T06:36:48;95394.63;;;-3.91;100.00
3178;BME280;38141;42.666;23.344;2024-01-11T06:39:16;95390.28;;;-3.43;100.00
3178;BME280;38141;42.666;23.344;2024-01-11T06:41:43;95395.63;;;-3.15;100.00
3178;BME280;38141;42.666;23.344;2024-01-11T06:44:10;95390.25;;;-2.81;100.00
3178;BME280;38141;42.666;23.344;2024-01-11T06:46:37;95391.53;;;-2.31;100.00
3178;BME280;38141;42.666;23.344;2024-01-11T06:49:07;95389.00;;;-1.80;100.00
3178;BME280;38141;42.666;23.344;2024-01-11T06:51:34;95388.19;;;-1.43;100.00
3178;BME280;38141;42.666;23.344;2024-01-11T06:54:01;95378.81;;;-1.21;100.00
3178;BME280;38141;42.666;23.344;2024-01-11T06:56:29;95383.03;;;-0.74;96.57
3178;BME280;38141;42.666;23.344;2024-01-11T06:58:56;95377.13;;;-0.30;92.52
3178;BME280;38141;42.666;23.344;2024-01-11T07:01:23;95370.25;;;0.76;85.33
3178;BME280;38141;42.666;23.344;2024-01-11T07:03:51;95383.91;;;1.67;76.05
3178;BME280;38141;42.666;23.344;2024-01-11T07:06:18;95386.44;;;3.82;62.55
3178;BME280;38141;42.666;23.344;2024-01-11T07:08:45;95383.19;;;6.92;52.57
3178;BME280;38141;42.666;23.344;2024-01-11T07:11:12;95386.78;;;8.65;45.93
3178;BME280;38141;42.666;23.344;2024-01-11T07:13:40;95367.50;;;10.08;42.13
3178;BME280;38141;42.666;23.344;2024-01-11T07:16:08;95384.19;;;10.36;40.07
3178;BME280;38141;42.666;23.344;2024-01-11T07:18:35;95383.72;;;8.00;43.30
3178;BME280;38141;42.666;23.344;2024-01-11T07:21:02;95388.59;;;5.91;47.38
3178;BME280;38141;42.666;23.344;2024-01-11T07:23:29;95374.41;;;5.33;49.13
3178;BME280;38141;42.666;23.344;2024-01-11T07:25:56;95376.47;;;5.61;48.60
3178;BME280;38141;42.666;23.344;2024-01-11T07:28:23;95383.72;;;5.03;48.99
3178;BME280;38141;42.666;23.344;2024-01-11T07:30:52;95375.00;;;5.39;49.68
3178;BME280;38141;42.666;23.344;2024-01-11T07:33:19;95371.72;;;5.21;49.49
3178;BME280;38141;42.666;23.344;2024-01-11T07:35:47;95370.00;;;5.86;47.98
3178;BME280;38141;42.666;23.344;2024-01-11T07:38:14;95382.00;;;6.77;46.68
3178;BME280;38141;42.666;23.344;2024-01-11T07:40:41;95378.00;;;6.71;45.41
3178;BME280;38141;42.666;23.344;2024-01-11T07:43:08;95382.50;;;6.67;45.81
3178;BME280;38141;42.666;23.344;2024-01-11T07:45:35;95377.66;;;6.08;46.38
3178;BME280;38141;42.666;23.344;2024-01-11T07:48:04;95387.03;;;6.39;46.83
3178;BME280;38141;42.666;23.344;2024-01-11T07:50:31;95375.53;;;6.78;45.84
3178;BME280;38141;42.666;23.344;2024-01-11T07:52:58;95374.69;;;6.50;46.24
3178;BME280;38141;42.666;23.344;2024-01-11T07:55:26;95372.53;;;7.23;46.39
3178;BME280;38141;42.666;23.344;2024-01-11T07:57:53;95374.66;;;7.30;44.82
3178;BME280;38141;42.666;23.344;2024-01-11T08:00:20;95375.38;;;8.36;43.14
3178;BME280;38141;42.666;23.344;2024-01-11T08:02:48;95372.16;;;12.34;36.57
3178;BME280;38141;42.666;23.344;2024-01-11T08:05:17;95367.38;;;15.06;32.90
3178;BME280;38141;42.666;23.344;2024-01-11T08:07:44;95380.31;;;15.79;30.89
3178;BME280;38141;42.666;23.344;2024-01-11T08:10:11;95378.44;;;18.07;28.76
3178;BME280;38141;42.666;23.344;2024-01-11T08:12:38;95374.75;;;19.53;26.93
3178;BME280;38141;42.666;23.344;2024-01-11T08:15:06;95373.53;;;19.94;25.75
3178;BME280;38141;42.666;23.344;2024-01-11T08:17:38;95371.56;;;19.16;25.95
3178;BME280;38141;42.666;23.344;2024-01-11T08:20:05;95374.25;;;19.59;25.82
3178;BME280;38141;42.666;23.344;2024-01-11T08:22:35;95367.19;;;17.75;27.67
3178;BME280;38141;42.666;23.344;2024-01-11T08:25:03;95355.72;;;17.50;27.25
3178;BME280;38141;42.666;23.344;2024-01-11T08:27:30;95362.84;;;15.66;29.00
3178;BME280;38141;42.666;23.344;2024-01-11T08:29:58;95360.75;;;12.69;32.48
3178;BME280;38141;42.666;23.344;2024-01-11T08:32:25;95357.91;;;13.16;31.52
3178;BME280;38141;42.666;23.344;2024-01-11T08:34:52;95360.03;;;12.75;31.97
3178;BME280;38141;42.666;23.344;2024-01-11T08:37:19;95356.31;;;11.92;33.22
3178;BME280;38141;42.666;23.344;2024-01-11T08:39:48;95351.41;;;13.35;31.70
3178;BME280;38141;42.666;23.344;2024-01-11T08:42:15;95356.97;;;14.16;31.19
3178;BME280;38141;42.666;23.344;2024-01-11T08:44:42;95358.50;;;14.71;30.34
3178;BME280;38141;42.666;23.344;2024-01-11T08:47:09;95351.22;;;11.87;33.25
3178;BME280;38141;42.666;23.344;2024-01-11T08:49:36;95332.50;;;14.48;31.02
3178;BME280;38141;42.666;23.344;2024-01-11T08:52:04;95347.34;;;16.11;29.00
3178;BME280;38141;42.666;23.344;2024-01-11T08:54:31;95360.63;;;20.59;25.41
3178;BME280;38141;42.666;23.344;2024-01-11T08:57:00;95351.34;;;20.69;24.61
3178;BME280;38141;42.666;23.344;2024-01-11T08:59:28;95346.72;;;22.57;23.09
3178;BME280;38141;42.666;23.344;2024-01-11T09:01:55;95338.81;;;23.50;22.27
3178;BME280;38141;42.666;23.344;2024-01-11T09:04:22;95334.50;;;24.32;21.53
3178;BME280;38141;42.666;23.344;2024-01-11T09:06:49;95328.22;;;25.36;21.11
3178;BME280;38141;42.666;23.344;2024-01-11T09:09:16;95328.94;;;24.72;20.62
3178;BME280;38141;42.666;23.344;2024-01-11T09:11:43;95326.16;;;22.84;22.26
3178;BME280;38141;42.666;23.344;2024-01-11T09:14:11;95319.50;;;23.50;21.53
3178;BME280;38141;42.666;23.344;2024-01-11T09:16:39;95325.25;;;22.87;21.51
3178;BME280;38141;42.666;23.344;2024-01-11T09:19:06;95318.44;;;20.66;22.89
3178;BME280;38141;42.666;23.344;2024-01-11T09:21:33;95318.19;;;21.34;23.35
3178;BME280;38141;42.666;23.344;2024-01-11T09:24:00;95313.66;;;22.32;22.53
3178;BME280;38141;42.666;23.344;2024-01-11T09:26:27;95300.44;;;20.32;23.35
3178;BME280;38141;42.666;23.344;2024-01-11T09:28:54;95297.22;;;19.10;24.33
3178;BME280;38141;42.666;23.344;2024-01-11T09:31:22;95287.34;;;17.50;26.01
3178;BME280;38141;42.666;23.344;2024-01-11T09:33:49;95294.28;;;14.80;29.41
3178;BME280;38141;42.666;23.344;2024-01-11T09:36:18;95291.88;;;12.26;32.22
3178;BME280;38141;42.666;23.344;2024-01-11T09:38:45;95277.63;;;11.85;32.78
3178;BME280;38141;42.666;23.344;2024-01-11T09:41:14;95252.94;;;11.97;32.89
3178;BME280;38141;42.666;23.344;2024-01-11T09:43:42;95233.56;;;12.74;31.88
3178;BME280;38141;42.666;23.344;2024-01-11T09:46:10;95233.88;;;12.59;32.38
3178;BME280;38141;42.666;23.344;2024-01-11T09:48:43;95218.22;;;13.21;31.81
3178;BME280;38141;42.666;23.344;2024-01-11T09:51:13;95257.09;;;14.03;30.84
3178;BME280;38141;42.666;23.344;2024-01-11T09:53:42;95240.78;;;13.57;31.31
3178;BME280;38141;42.666;23.344;2024-01-11T09:56:10;95228.97;;;12.92;31.85
3178;BME280;38141;42.666;23.344;2024-01-11T09:58:44;95224.81;;;13.20;31.71
3178;BME280;38141;42.666;23.344;2024-01-11T10:01:14;95196.84;;;13.26;31.48
3178;BME280;38141;42.666;23.344;2024-01-11T10:03:43;95232.97;;;13.30;30.94
3178;BME280;38141;42.666;23.344;2024-01-11T10:06:12;95222.00;;;12.95;31.92
3178;BME280;38141;42.666;23.344;2024-01-11T10:08:41;95217.72;;;12.87;31.71
3178;BME280;38141;42.666;23.344;2024-01-11T10:11:11;95221.09;;;12.52;32.38
3178;BME280;38141;42.666;23.344;2024-01-11T10:13:38;95212.69;;;12.96;32.97
3178;BME280;38141;42.666;23.344;2024-01-11T10:16:06;95210.28;;;12.63;32.87
3178;BME280;38141;42.666;23.344;2024-01-11T10:18:35;95196.31;;;12.68;33.02
3178;BME280;38141;42.666;23.344;2024-01-11T10:21:04;95195.81;;;12.41;32.92
3178;BME280;38141;42.666;23.344;2024-01-11T10:23:33;95187.38;;;12.53;32.82
3178;BME280;38141;42.666;23.344;2024-01-11T10:26:00;95185.81;;;11.76;34.23
3178;BME280;38141;42.666;23.344;2024-01-11T10:28:28;95189.00;;;12.82;33.13
3178;BME280;38141;42.666;23.344;2024-01-11T10:30:55;95187.16;;;13.15;32.31
3178;BME280;38141;42.666;23.344;2024-01-11T10:33:22;95175.59;;;12.24;33.68
3178;BME280;38141;42.666;23.344;2024-01-11T10:35:49;95153.31;;;10.85;35.20
3178;BME280;38141;42.666;23.344;2024-01-11T10:38:18;95177.81;;;11.50;34.12
3178;BME280;38141;42.666;23.344;2024-01-11T10:40:46;95154.69;;;12.28;33.13
3178;BME280;38141;42.666;23.344;2024-01-11T10:43:19;95157.78;;;10.70;35.16
3178;BME280;38141;42.666;23.344;2024-01-11T10:45:48;95156.03;;;8.44;39.30
3178;BME280;38141;42.666;23.344;2024-01-11T10:48:21;95151.97;;;8.16;39.85
3178;BME280;38141;42.666;23.344;2024-01-11T10:50:54;95151.69;;;9.05;38.49
3178;BME280;38141;42.666;23.344;2024-01-11T10:53:41;95154.56;;;8.92;39.50
3178;BME280;38141;42.666;23.344;2024-01-11T10:56:11;95144.38;;;9.05;39.63
3178;BME280;38141;42.666;23.344;2024-01-11T10:58:40;95147.50;;;8.84;39.79
3178;BME280;38141;42.666;23.344;2024-01-11T11:01:08;95139.75;;;8.83;40.32
3178;BME280;38141;42.666;23.344;2024-01-11T11:03:36;95126.59;;;7.78;41.47
3178;BME280;38141;42.666;23.344;2024-01-11T11:06:06;95118.78;;;7.73;43.19
3178;BME280;38141;42.666;23.344;2024-01-11T11:08:35;95128.66;;;7.50;41.96
3178;BME280;38141;42.666;23.344;2024-01-11T11:11:03;95122.13;;;8.24;41.71
3178;BME280;38141;42.666;23.344;2024-01-11T11:13:32;95107.00;;;7.81;42.24
3178;BME280;38141;42.666;23.344;2024-01-11T11:16:00;95097.50;;;8.26;41.92
3178;BME280;38141;42.666;23.344;2024-01-11T11:18:29;95090.44;;;8.60;41.46
3178;BME280;38141;42.666;23.344;2024-01-11T11:20:57;95086.25;;;8.20;41.30
3178;BME280;38141;42.666;23.344;2024-01-11T11:23:24;95071.34;;;8.26;41.90
3178;BME280;38141;42.666;23.344;2024-01-11T11:25:54;95083.19;;;8.64;40.94
3178;BME280;38141;42.666;23.344;2024-01-11T11:28:22;95074.13;;;8.98;41.04
3178;BME280;38141;42.666;23.344;2024-01-11T11:30:49;95065.38;;;9.34;40.10
3178;BME280;38141;42.666;23.344;2024-01-11T11:33:18;95045.94;;;8.73;41.93
3178;BME280;38141;42.666;23.344;2024-01-11T11:35:46;95053.13;;;9.14;40.13
3178;BME280;38141;42.666;23.344;2024-01-11T11:38:23;95055.44;;;8.63;41.15
3178;BME280;38141;42.666;23.344;2024-01-11T11:40:55;95037.97;;;9.32;39.64
3178;BME280;38141;42.666;23.344;2024-01-11T11:43:23;95040.22;;;8.74;40.74
3178;BME280;38141;42.666;23.344;2024-01-11T11:45:51;95035.66;;;8.78;41.51
3178;BME280;38141;42.666;23.344;2024-01-11T11:48:48;95036.91;;;9.11;40.83
3178;BME280;38141;42.666;23.344;2024-01-11T11:51:17;95028.59;;;8.70;41.87
3178;BME280;38141;42.666;23.344;2024-01-11T11:53:46;95019.88;;;9.07;41.36
3178;BME280;38141;42.666;23.344;2024-01-11T11:56:16;95024.97;;;9.71;40.46
3178;BME280;38141;42.666;23.344;2024-01-11T11:58:44;95018.75;;;9.67;39.98
3178;BME280;38141;42.666;23.344;2024-01-11T12:01:13;94950.06;;;9.68;39.64
3178;BME280;38141;42.666;23.344;2024-01-11T12:03:44;95011.28;;;9.91;39.40
3178;BME280;38141;42.666;23.344;2024-01-11T12:06:15;95012.16;;;9.98;39.65
3178;BME280;38141;42.666;23.344;2024-01-11T12:08:43;95007.75;;;10.20;39.65
3178;BME280;38141;42.666;23.344;2024-01-11T12:11:13;94992.03;;;10.33;39.20
3178;BME280;38141;42.666;23.344;2024-01-11T12:13:41;95002.13;;;9.99;39.91
3178;BME280;38141;42.666;23.344;2024-01-11T12:16:10;94996.47;;;9.44;40.87
3178;BME280;38141;42.666;23.344;2024-01-11T12:18:37;94980.63;;;10.13;40.15
3178;BME280;38141;42.666;23.344;2024-01-11T12:21:05;94984.84;;;11.02;38.46
3178;BME280;38141;42.666;23.344;2024-01-11T12:23:33;94962.28;;;10.84;38.64
3178;BME280;38141;42.666;23.344;2024-01-11T12:26:01;94969.47;;;9.44;40.42
3178;BME280;38141;42.666;23.344;2024-01-11T12:28:31;94971.84;;;9.49;40.78
3178;BME280;38141;42.666;23.344;2024-01-11T12:31:00;94962.63;;;9.91;41.20
3178;BME280;38141;42.666;23.344;2024-01-11T12:33:27;94957.78;;;9.66;41.48
3178;BME280;38141;42.666;23.344;2024-01-11T12:35:54;94965.88;;;9.03;42.74
3178;BME280;38141;42.666;23.344;2024-01-11T12:38:21;94960.22;;;8.59;44.03
3178;BME280;38141;42.666;23.344;2024-01-11T12:40:48;94953.47;;;9.28;42.84
3178;BME280;38141;42.666;23.344;2024-01-11T12:43:16;94947.91;;;9.48;42.93
3178;BME280;38141;42.666;23.344;2024-01-11T12:45:43;94946.19;;;9.32;43.02
3178;BME280;38141;42.666;23.344;2024-01-11T12:48:11;94940.03;;;9.02;43.76
3178;BME280;38141;42.666;23.344;2024-01-11T12:50:42;94933.06;;;9.31;43.39
3178;BME280;38141;42.666;23.344;2024-01-11T12:53:10;94928.59;;;8.30;46.75
3178;BME280;38141;42.666;23.344;2024-01-11T12:55:43;94935.59;;;8.61;45.97
3178;BME280;38141;42.666;23.344;2024-01-11T12:58:10;94919.78;;;8.33;47.19
3178;BME280;38141;42.666;23.344;2024-01-11T13:00:37;94917.47;;;8.87;46.48